Time;durP1;ratioP1;P1;durP2;ratioP2;P2;SDS_P1;SDS_P2;PMS_P1;PMS_P2;Temp;Humidity;BMP_temperature;BMP_pressure;BME280_temperature;BME280_humidity;BME280_pressure;Samples;Min_cycle;Max_cycle;Signal;HPM_P1;HPM_P2
2023/09/06 00:01:39;;;;;;;4.23;1.60;;;18.20;99.90;;;;;;5038209;28;20298;-83
2023/09/06 00:04:05;;;;;;;4.47;1.80;;;18.10;99.90;;;;;;5038153;28;20214;-83
2023/09/06 00:06:31;;;;;;;3.87;1.77;;;18.00;99.90;;;;;;5037876;28;20172;-84
2023/09/06 00:08:56;;;;;;;1.80;1.60;;;18.20;99.90;;;;;;5037087;28;20179;-83
2023/09/06 00:11:24;;;;;;;4.47;1.63;;;18.80;99.90;;;;;;5037464;28;20651;-84
2023/09/06 00:13:50;;;;;;;4.83;1.60;;;18.80;99.90;;;;;;5036766;28;20543;-84
2023/09/06 00:16:16;;;;;;;5.07;1.87;;;18.00;99.90;;;;;;5038042;28;20247;-84
2023/09/06 00:18:42;;;;;;;3.70;2.03;;;18.30;99.90;;;;;;5036091;28;20219;-83
2023/09/06 00:21:08;;;;;;;3.67;1.90;;;18.20;99.90;;;;;;5036404;28;20173;-84
2023/09/06 00:23:34;;;;;;;2.17;1.60;;;18.80;99.90;;;;;;5038277;28;20259;-84
2023/09/06 00:25:59;;;;;;;8.57;2.13;;;18.30;99.90;;;;;;5036120;28;20239;-84
2023/09/06 00:28:25;;;;;;;5.17;2.20;;;17.80;99.90;;;;;;5037832;28;20632;-83
2023/09/06 00:30:52;;;;;;;4.03;1.63;;;17.90;99.90;;;;;;5038236;28;20210;-83
2023/09/06 00:33:17;;;;;;;6.40;1.63;;;17.80;99.90;;;;;;5037340;28;20195;-83
2023/09/06 00:35:43;;;;;;;3.27;1.77;;;18.30;99.90;;;;;;5035836;28;20520;-83
2023/09/06 00:38:10;;;;;;;5.27;1.77;;;17.70;99.90;;;;;;5036472;28;20172;-83
2023/09/06 00:40:37;;;;;;;7.50;2.00;;;18.10;99.90;;;;;;5035604;28;20176;-83
2023/09/06 00:43:08;;;;;;;2.87;1.90;;;18.20;99.90;;;;;;5035650;28;20269;-83
2023/09/06 00:45:37;;;;;;;8.50;2.17;;;17.90;99.90;;;;;;5035174;28;20316;-83
2023/09/06 00:48:05;;;;;;;3.93;1.70;;;18.00;99.90;;;;;;5037086;28;20176;-83
2023/09/06 00:50:33;;;;;;;8.27;2.57;;;17.50;99.90;;;;;;5036998;28;20798;-84
2023/09/06 00:52:59;;;;;;;3.10;1.80;;;16.30;99.90;;;;;;5036963;28;20192;-83
2023/09/06 00:55:25;;;;;;;3.17;1.77;;;17.60;99.90;;;;;;5038892;28;20165;-82
2023/09/06 00:57:52;;;;;;;3.43;2.07;;;17.10;99.90;;;;;;5036409;28;20196;-82
2023/09/06 01:00:19;;;;;;;6.07;2.10;;;17.80;99.90;;;;;;5037418;28;20172;-83
2023/09/06 01:02:47;;;;;;;7.43;2.07;;;17.30;99.90;;;;;;5037228;28;20203;-83
2023/09/06 01:05:13;;;;;;;8.73;2.10;;;17.50;99.90;;;;;;5035604;28;20498;-84
2023/09/06 01:07:43;;;;;;;7.57;1.83;;;17.50;99.90;;;;;;5035287;28;20230;-83
2023/09/06 01:10:09;;;;;;;7.50;2.30;;;17.90;99.90;;;;;;5035093;28;20176;-84
2023/09/06 01:12:35;;;;;;;4.83;1.70;;;17.10;99.90;;;;;;5036494;28;20258;-83
2023/09/06 01:15:03;;;;;;;2.93;1.73;;;17.00;99.90;;;;;;5035364;28;20192;-83
2023/09/06 01:17:31;;;;;;;4.43;1.67;;;17.00;99.90;;;;;;5034855;28;20176;-83
2023/09/06 01:20:26;;;;;;;5.80;1.90;;;17.80;99.90;;;;;;5035473;28;20175;-84
2023/09/06 01:23:06;;;;;;;5.00;2.00;;;16.80;99.90;;;;;;5017513;28;20234;-83
2023/09/06 01:25:32;;;;;;;2.13;1.93;;;16.70;99.90;;;;;;5034984;28;20707;-83
2023/09/06 01:27:57;;;;;;;4.07;1.90;;;16.80;99.90;;;;;;5035613;28;20285;-84
2023/09/06 01:30:29;;;;;;;4.93;2.07;;;16.90;99.90;;;;;;5034226;28;20286;-84
2023/09/06 01:32:55;;;;;;;7.20;2.03;;;17.50;99.90;;;;;;5036352;28;20759;-84
2023/09/06 01:35:20;;;;;;;7.33;2.00;;;16.70;99.90;;;;;;5034751;28;20200;-83
2023/09/06 01:37:50;;;;;;;5.20;2.20;;;16.70;99.90;;;;;;5035841;28;20172;-84
2023/09/06 01:40:19;;;;;;;3.77;1.83;;;16.80;99.90;;;;;;5034986;28;20637;-83
2023/09/06 01:42:46;;;;;;;8.77;1.83;;;16.70;99.90;;;;;;5035556;28;20220;-83
2023/09/06 01:45:17;;;;;;;4.50;2.10;;;17.10;99.90;;;;;;5036236;28;20168;-83
2023/09/06 01:47:48;;;;;;;4.57;1.70;;;17.60;99.90;;;;;;5034797;28;20621;-83
2023/09/06 01:50:19;;;;;;;5.83;2.37;;;16.70;99.90;;;;;;5036149;28;20504;-83
2023/09/06 01:52:48;;;;;;;7.97;2.00;;;16.60;99.90;;;;;;5035212;28;20710;-83
2023/09/06 01:55:13;;;;;;;5.40;1.70;;;16.50;99.90;;;;;;5037276;28;20168;-82
2023/09/06 01:57:39;;;;;;;4.83;2.20;;;16.60;99.90;;;;;;5039610;28;20632;-83
2023/09/06 02:00:27;;;;;;;8.27;2.30;;;16.60;99.90;;;;;;5040100;28;20298;-83
2023/09/06 02:02:54;;;;;;;6.30;2.07;;;16.60;99.90;;;;;;5039013;28;20224;-83
2023/09/06 02:05:20;;;;;;;6.10;2.43;;;16.90;99.90;;;;;;5038316;28;20176;-83
2023/09/06 02:07:46;;;;;;;6.53;1.90;;;16.70;99.90;;;;;;5038645;28;20173;-83
2023/09/06 02:10:12;;;;;;;5.77;2.10;;;16.60;99.90;;;;;;5038325;28;20608;-83
2023/09/06 02:12:38;;;;;;;4.63;2.13;;;16.40;99.90;;;;;;5038039;28;20189;-83
2023/09/06 02:15:06;;;;;;;4.53;1.80;;;16.50;99.90;;;;;;5038892;28;20165;-83
2023/09/06 02:17:35;;;;;;;5.13;2.00;;;16.20;99.90;;;;;;5038339;28;20607;-83
2023/09/06 02:20:12;;;;;;;5.93;2.10;;;16.20;99.90;;;;;;5039233;28;20686;-83
2023/09/06 02:22:39;;;;;;;3.33;1.77;;;16.20;99.90;;;;;;5037281;28;20192;-83
2023/09/06 02:25:09;;;;;;;6.00;1.83;;;16.10;99.90;;;;;;5037525;28;20185;-83
2023/09/06 02:27:35;;;;;;;5.67;2.03;;;16.20;99.90;;;;;;5038489;28;20168;-83
2023/09/06 02:30:06;;;;;;;6.57;2.00;;;15.90;99.90;;;;;;5039205;28;20184;-83
2023/09/06 02:32:34;;;;;;;5.90;2.23;;;16.10;99.90;;;;;;5037546;28;20291;-83
2023/09/06 02:35:00;;;;;;;3.63;1.97;;;16.00;99.90;;;;;;5037889;28;20175;-83
2023/09/06 02:37:26;;;;;;;2.17;1.70;;;16.00;99.90;;;;;;5039103;28;20164;-83
2023/09/06 02:39:54;;;;;;;4.00;1.90;;;16.00;99.90;;;;;;5037146;28;20172;-82
2023/09/06 02:42:21;;;;;;;4.13;1.90;;;15.90;99.90;;;;;;5037205;28;20218;-83
2023/09/06 02:44:47;;;;;;;6.63;2.00;;;16.00;99.90;;;;;;5037295;28;20230;-83
2023/09/06 02:47:15;;;;;;;8.60;2.17;;;15.80;99.90;;;;;;5038870;28;20546;-83
2023/09/06 02:49:43;;;;;;;3.70;2.10;;;16.00;99.90;;;;;;5037818;28;20168;-83
2023/09/06 02:52:20;;;;;;;4.70;1.83;;;15.70;99.90;;;;;;5037118;28;20220;-83
2023/09/06 02:54:49;;;;;;;5.77;2.07;;;15.70;99.90;;;;;;5037550;28;20190;-83
2023/09/06 02:57:17;;;;;;;2.33;1.80;;;15.70;99.90;;;;;;5038450;28;20172;-83
2023/09/06 02:59:42;;;;;;;5.03;2.23;;;15.70;99.90;;;;;;5037502;28;20650;-83
2023/09/06 03:02:08;;;;;;;3.97;1.90;;;15.60;99.90;;;;;;5037649;28;20192;-83
2023/09/06 03:04:37;;;;;;;4.87;1.87;;;15.50;99.90;;;;;;5037656;28;20239;-83
2023/09/06 03:07:09;;;;;;;4.83;2.23;;;15.50;99.90;;;;;;5037229;28;20186;-83
2023/09/06 03:09:38;;;;;;;4.23;1.97;;;15.50;99.90;;;;;;5037433;28;20177;-82
2023/09/06 03:12:23;;;;;;;5.90;2.13;;;15.50;99.90;;;;;;5037676;28;20318;-83
2023/09/06 03:14:50;;;;;;;3.27;1.77;;;15.50;99.90;;;;;;5038123;28;20624;-83
2023/09/06 03:17:18;;;;;;;8.17;2.47;;;15.50;99.90;;;;;;5042063;28;20177;-83
2023/09/06 03:19:46;;;;;;;2.67;1.70;;;15.60;99.90;;;;;;5043637;28;20531;-83
2023/09/06 03:22:12;;;;;;;3.40;1.80;;;15.60;99.90;;;;;;5037345;28;20192;-83
2023/09/06 03:24:43;;;;;;;5.13;2.20;;;15.70;99.90;;;;;;5035625;28;20184;-83
2023/09/06 03:27:15;;;;;;;4.53;2.17;;;15.70;99.90;;;;;;5036353;28;20640;-83
2023/09/06 03:29:41;;;;;;;2.87;2.13;;;15.70;99.90;;;;;;5036093;28;20657;-82
2023/09/06 03:32:10;;;;;;;3.93;1.93;;;15.40;99.90;;;;;;5035718;28;20208;-83
2023/09/06 03:34:36;;;;;;;4.60;2.43;;;15.30;99.90;;;;;;5036323;28;20195;-83
2023/09/06 03:37:08;;;;;;;4.37;2.30;;;16.40;99.90;;;;;;5037150;28;20168;-83
2023/09/06 03:39:42;;;;;;;8.87;1.97;;;15.10;99.90;;;;;;5036536;28;20636;-82
2023/09/06 03:42:09;;;;;;;3.17;2.23;;;15.10;99.90;;;;;;5035452;28;20202;-82
2023/09/06 03:44:38;;;;;;;5.03;1.97;;;15.60;99.90;;;;;;5035605;28;20203;-82
2023/09/06 03:47:13;;;;;;;8.27;2.10;;;15.10;99.90;;;;;;5037068;28;20514;-82
2023/09/06 03:49:40;;;;;;;3.93;1.97;;;15.10;99.90;;;;;;5035531;28;20723;-82
2023/09/06 03:52:06;;;;;;;4.40;1.97;;;15.10;99.90;;;;;;5035021;28;20591;-83
2023/09/06 03:54:34;;;;;;;8.07;2.80;;;15.50;99.90;;;;;;5035720;28;20651;-82
2023/09/06 03:57:03;;;;;;;4.57;2.00;;;15.20;99.90;;;;;;5035376;28;20252;-82
2023/09/06 03:59:31;;;;;;;4.60;2.20;;;15.10;99.90;;;;;;5037568;28;20526;-82
2023/09/06 04:01:57;;;;;;;4.60;2.43;;;15.00;99.90;;;;;;5035576;28;20193;-83
2023/09/06 04:04:23;;;;;;;3.23;1.97;;;15.10;99.90;;;;;;5035834;28;20176;-82
2023/09/06 04:06:49;;;;;;;2.20;2.00;;;15.30;99.90;;;;;;5035429;28;20659;-83
2023/09/06 04:09:17;;;;;;;6.50;2.13;;;15.20;99.90;;;;;;5035249;28;20271;-82
2023/09/06 04:11:43;;;;;;;2.37;2.07;;;15.60;99.90;;;;;;5035339;28;20208;-82
2023/09/06 04:14:08;;;;;;;4.53;1.80;;;15.10;99.90;;;;;;5036688;28;20191;-82
2023/09/06 04:16:40;;;;;;;7.97;2.10;;;14.80;99.90;;;;;;5035597;28;20176;-82
2023/09/06 04:19:06;;;;;;;7.23;2.10;;;14.90;99.90;;;;;;5036736;28;20172;-83
2023/09/06 04:21:32;;;;;;;7.23;2.07;;;15.40;99.90;;;;;;5035076;28;20709;-82
2023/09/06 04:23:57;;;;;;;4.37;1.90;;;15.40;99.90;;;;;;5035071;28;20607;-82
2023/09/06 04:26:25;;;;;;;3.73;1.90;;;14.70;99.90;;;;;;5034327;28;20178;-83
2023/09/06 04:28:50;;;;;;;4.20;1.93;;;14.90;99.90;;;;;;5034721;28;20187;-82
2023/09/06 04:31:17;;;;;;;5.23;1.90;;;14.80;99.90;;;;;;5035673;28;20207;-83
2023/09/06 04:33:44;;;;;;;3.37;1.67;;;14.70;99.90;;;;;;5034044;28;20195;-82
2023/09/06 04:36:09;;;;;;;6.13;2.43;;;14.50;99.90;;;;;;5035513;28;20230;-83
2023/09/06 04:38:35;;;;;;;5.93;1.93;;;14.70;99.90;;;;;;5035941;28;20176;-82
2023/09/06 04:41:02;;;;;;;4.33;1.77;;;14.80;99.90;;;;;;5036806;28;20173;-82
2023/09/06 04:43:28;;;;;;;4.53;1.70;;;15.10;99.90;;;;;;5034934;28;20633;-85
2023/09/06 04:45:54;;;;;;;3.37;2.00;;;14.80;99.90;;;;;;5035937;28;20172;-84
2023/09/06 04:48:23;;;;;;;3.30;1.80;;;14.80;99.90;;;;;;5034641;28;20295;-83
2023/09/06 04:50:49;;;;;;;4.70;2.10;;;14.70;99.90;;;;;;5034872;28;20196;-83
2023/09/06 04:53:17;;;;;;;3.87;1.90;;;14.90;99.90;;;;;;5036837;28;20223;-83
2023/09/06 04:55:44;;;;;;;12.17;2.33;;;14.70;99.90;;;;;;5035050;28;20172;-83
2023/09/06 04:58:10;;;;;;;4.27;1.90;;;14.70;99.90;;;;;;5036517;28;20232;-84
2023/09/06 05:00:43;;;;;;;7.17;1.80;;;14.70;99.90;;;;;;5035609;28;20247;-81
2023/09/06 05:03:12;;;;;;;7.97;1.87;;;14.60;99.90;;;;;;5033776;28;20291;-82
2023/09/06 05:05:39;;;;;;;6.50;2.10;;;14.60;99.90;;;;;;5034760;28;20270;-82
2023/09/06 05:08:05;;;;;;;9.30;2.60;;;14.60;99.90;;;;;;5033460;28;20275;-82
2023/09/06 05:10:31;;;;;;;3.60;1.63;;;14.60;99.90;;;;;;5034935;28;20168;-82
2023/09/06 05:12:58;;;;;;;2.87;1.80;;;14.60;99.90;;;;;;5035088;28;20188;-82
2023/09/06 05:15:23;;;;;;;5.50;1.93;;;14.60;99.90;;;;;;5035474;28;20168;-82
2023/09/06 05:17:49;;;;;;;5.00;2.33;;;14.60;99.90;;;;;;5034060;28;20272;-82
2023/09/06 05:20:30;;;;;;;2.83;1.70;;;14.50;99.90;;;;;;5033069;28;20203;-82
2023/09/06 05:23:00;;;;;;;3.33;1.90;;;14.60;99.90;;;;;;5042133;28;20183;-82
2023/09/06 05:25:25;;;;;;;5.63;1.90;;;14.60;99.90;;;;;;5053887;28;20519;-82
2023/09/06 05:27:57;;;;;;;4.73;2.23;;;14.60;99.90;;;;;;5053709;28;20168;-82
2023/09/06 05:30:23;;;;;;;3.33;2.00;;;14.60;99.90;;;;;;5055301;28;20202;-82
2023/09/06 05:32:49;;;;;;;5.23;2.13;;;14.60;99.90;;;;;;5057394;28;20282;-82
2023/09/06 05:35:15;;;;;;;4.03;2.20;;;14.60;99.90;;;;;;5058638;28;20174;-82
2023/09/06 05:37:41;;;;;;;7.40;2.43;;;14.60;99.90;;;;;;5057431;28;20262;-82
2023/09/06 05:40:08;;;;;;;4.77;2.27;;;14.60;99.90;;;;;;5056380;28;20168;-82
2023/09/06 05:42:34;;;;;;;6.33;2.03;;;14.60;99.90;;;;;;5038410;28;20192;-83
2023/09/06 05:44:59;;;;;;;6.90;2.70;;;14.60;99.90;;;;;;5039163;28;20648;-82
2023/09/06 05:47:25;;;;;;;2.67;2.10;;;14.70;99.90;;;;;;5050790;28;20540;-83
2023/09/06 05:49:52;;;;;;;5.53;2.73;;;14.70;99.90;;;;;;5056892;28;20316;-82
2023/09/06 05:52:18;;;;;;;8.60;2.23;;;14.70;99.90;;;;;;5056857;28;20218;-82
2023/09/06 05:54:44;;;;;;;3.00;2.20;;;14.60;99.90;;;;;;5057074;28;20195;-82
2023/09/06 05:57:10;;;;;;;5.97;2.50;;;14.70;99.90;;;;;;5056299;28;20199;-82
2023/09/06 05:59:36;;;;;;;5.73;1.90;;;14.60;99.90;;;;;;5046249;28;20180;-82
2023/09/06 06:02:02;;;;;;;3.23;2.27;;;14.70;99.90;;;;;;5037589;28;20234;-82
2023/09/06 06:04:28;;;;;;;3.93;2.83;;;14.70;99.90;;;;;;5036318;28;20176;-82
2023/09/06 06:06:54;;;;;;;3.77;2.47;;;14.70;99.90;;;;;;5054717;28;20196;-82
2023/09/06 06:09:21;;;;;;;4.23;2.50;;;14.70;99.90;;;;;;5056512;28;20187;-82
2023/09/06 06:11:47;;;;;;;4.97;2.17;;;14.80;99.90;;;;;;5056294;28;20212;-82
2023/09/06 06:14:13;;;;;;;4.83;2.90;;;14.80;99.90;;;;;;5056441;28;20171;-83
2023/09/06 06:16:39;;;;;;;7.90;2.57;;;14.80;99.90;;;;;;5056947;28;20647;-82
2023/09/06 06:19:04;;;;;;;2.83;2.40;;;14.80;99.90;;;;;;5038478;28;20331;-82
2023/09/06 06:21:31;;;;;;;5.83;2.53;;;14.90;99.90;;;;;;5038207;28;20180;-82
2023/09/06 06:23:57;;;;;;;4.90;2.40;;;14.90;99.90;;;;;;5037189;28;20206;-82
2023/09/06 06:26:23;;;;;;;3.43;2.47;;;14.90;99.90;;;;;;5037725;28;20184;-82
2023/09/06 06:28:49;;;;;;;3.60;2.60;;;15.10;99.90;;;;;;5037624;28;20601;-82
2023/09/06 06:31:15;;;;;;;5.20;2.50;;;14.70;99.90;;;;;;5036145;28;20708;-82
2023/09/06 06:33:40;;;;;;;5.73;2.80;;;15.10;99.90;;;;;;5035635;28;20183;-83
2023/09/06 06:36:06;;;;;;;6.93;2.83;;;15.10;99.90;;;;;;5045068;28;20525;-82
2023/09/06 06:38:32;;;;;;;6.40;2.77;;;15.20;99.90;;;;;;5037465;28;20176;-82
2023/09/06 06:40:58;;;;;;;7.23;2.97;;;15.20;99.90;;;;;;5036671;28;20179;-82
2023/09/06 06:43:23;;;;;;;5.50;2.63;;;15.30;99.90;;;;;;5035816;28;20641;-82
2023/09/06 06:45:56;;;;;;;3.30;2.63;;;15.20;99.90;;;;;;5036778;28;20592;-82
2023/09/06 06:48:21;;;;;;;8.27;3.50;;;15.60;99.90;;;;;;5037390;28;20203;-82
2023/09/06 06:50:47;;;;;;;4.50;2.80;;;15.50;99.90;;;;;;5036713;28;20200;-82
2023/09/06 06:53:13;;;;;;;4.80;3.30;;;15.50;99.90;;;;;;5056387;28;20218;-82
2023/09/06 06:55:39;;;;;;;4.87;3.03;;;15.70;99.90;;;;;;5056265;28;20585;-82
2023/09/06 06:58:07;;;;;;;4.97;3.10;;;15.70;99.90;;;;;;5057323;28;20242;-83
2023/09/06 07:00:34;;;;;;;7.80;3.83;;;15.80;99.90;;;;;;5056008;28;20171;-82
2023/09/06 07:03:00;;;;;;;5.23;3.63;;;15.90;99.90;;;;;;5057809;28;20191;-83
2023/09/06 07:05:25;;;;;;;7.87;3.33;;;16.30;99.90;;;;;;5059302;28;20244;-82
2023/09/06 07:07:52;;;;;;;4.83;3.37;;;16.20;99.90;;;;;;5057994;28;20179;-83
2023/09/06 07:10:18;;;;;;;3.90;3.33;;;16.30;99.90;;;;;;5038080;28;20172;-81
2023/09/06 07:12:43;;;;;;;4.53;3.13;;;16.50;99.90;;;;;;5038011;28;20204;-83
2023/09/06 07:15:10;;;;;;;5.47;3.30;;;16.50;99.90;;;;;;5037902;28;20189;-82
2023/09/06 07:17:36;;;;;;;5.33;3.07;;;16.70;99.90;;;;;;5037736;28;20254;-82
2023/09/06 07:20:04;;;;;;;5.20;3.10;;;16.80;99.90;;;;;;5040865;28;20187;-83
2023/09/06 07:22:30;;;;;;;6.47;3.70;;;16.90;99.90;;;;;;5037875;28;20188;-83
2023/09/06 07:24:56;;;;;;;10.37;3.27;;;17.00;99.90;;;;;;5037112;28;20248;-83
2023/09/06 07:27:21;;;;;;;7.27;3.43;;;17.20;99.90;;;;;;5038520;28;20238;-83
2023/09/06 07:29:47;;;;;;;4.40;3.40;;;17.30;99.90;;;;;;5037718;28;20232;-83
2023/09/06 07:32:13;;;;;;;7.13;3.77;;;17.40;99.90;;;;;;5037924;28;20216;-83
2023/09/06 07:34:38;;;;;;;6.53;3.27;;;17.40;99.90;;;;;;5036288;28;20204;-83
2023/09/06 07:37:04;;;;;;;4.30;3.20;;;17.70;99.90;;;;;;5038022;28;20176;-83
2023/09/06 07:39:29;;;;;;;5.13;2.90;;;17.70;99.90;;;;;;5042871;28;20192;-83
2023/09/06 07:41:56;;;;;;;6.27;3.07;;;17.80;99.90;;;;;;5037527;28;20200;-83
2023/09/06 07:44:21;;;;;;;6.03;3.20;;;17.90;99.90;;;;;;5038165;28;20180;-83
2023/09/06 07:46:48;;;;;;;4.17;2.70;;;18.30;99.90;;;;;;5037697;28;20531;-84
2023/09/06 07:49:18;;;;;;;3.47;2.80;;;18.20;99.90;;;;;;5037333;28;20191;-83
2023/09/06 07:51:44;;;;;;;6.27;3.47;;;18.10;99.90;;;;;;5036394;28;20299;-84
2023/09/06 07:54:11;;;;;;;4.63;2.93;;;18.30;99.90;;;;;;5054624;28;20214;-83
2023/09/06 07:56:37;;;;;;;4.37;3.00;;;18.50;99.90;;;;;;5042780;28;20180;-83
2023/09/06 07:59:03;;;;;;;3.57;3.00;;;18.50;99.90;;;;;;5051524;28;20178;-81
2023/09/06 08:01:29;;;;;;;6.93;2.87;;;18.70;99.90;;;;;;5066413;28;20255;-80
2023/09/06 08:03:55;;;;;;;5.13;2.70;;;18.80;99.90;;;;;;5053090;28;20176;-82
2023/09/06 08:06:21;;;;;;;4.70;2.97;;;18.90;99.90;;;;;;5051755;28;20195;-82
2023/09/06 08:08:47;;;;;;;6.40;2.67;;;19.20;99.90;;;;;;5057470;28;20191;-83
2023/09/06 08:11:16;;;;;;;7.27;2.80;;;19.10;99.90;;;;;;5056862;28;20199;-82
2023/09/06 08:13:41;;;;;;;7.93;3.00;;;19.20;99.90;;;;;;5054873;28;20328;-83
2023/09/06 08:16:07;;;;;;;3.27;2.80;;;19.30;99.90;;;;;;5055965;28;20192;-82
2023/09/06 08:18:32;;;;;;;7.60;3.27;;;19.40;99.90;;;;;;5056757;28;20202;-82
2023/09/06 08:20:59;;;;;;;4.33;2.60;;;19.60;99.90;;;;;;5056968;28;20194;-83
2023/09/06 08:23:24;;;;;;;5.80;3.00;;;19.80;99.90;;;;;;5056785;28;20202;-83
2023/09/06 08:25:50;;;;;;;4.37;2.60;;;19.90;99.90;;;;;;5054719;28;20526;-84
2023/09/06 08:28:18;;;;;;;5.57;2.63;;;19.90;99.90;;;;;;5054764;28;20266;-82
2023/09/06 08:30:44;;;;;;;4.83;3.00;;;19.90;99.90;;;;;;5053910;28;20671;-83
2023/09/06 08:33:10;;;;;;;4.87;2.80;;;20.00;99.90;;;;;;5055540;28;20191;-83
2023/09/06 08:35:35;;;;;;;5.20;2.90;;;20.10;99.90;;;;;;5054106;28;20176;-83
2023/09/06 08:38:02;;;;;;;5.07;2.80;;;20.20;1.00;;;;;;5054143;28;20178;-83
2023/09/06 08:40:27;;;;;;;3.23;2.47;;;20.30;1.00;;;;;;5055559;28;20167;-83
2023/09/06 08:42:55;;;;;;;3.93;3.00;;;20.40;1.00;;;;;;5054608;28;20191;-82
2023/09/06 08:45:21;;;;;;;4.87;3.10;;;20.50;1.00;;;;;;5054409;28;20249;-83
2023/09/06 08:47:48;;;;;;;4.60;2.80;;;20.70;1.00;;;;;;5054752;28;20171;-83
2023/09/06 08:50:14;;;;;;;4.40;2.77;;;20.60;1.00;;;;;;5056179;28;20190;-83
2023/09/06 08:52:42;;;;;;;3.93;2.67;;;20.80;1.00;;;;;;5056277;28;20207;-83
2023/09/06 08:55:11;;;;;;;7.23;2.80;;;20.80;1.00;;;;;;5054216;28;20203;-83
2023/09/06 08:57:37;;;;;;;4.67;3.07;;;21.00;1.00;;;;;;5055801;28;20168;-83
2023/09/06 09:00:05;;;;;;;5.50;3.23;;;20.90;1.00;;;;;;5055584;28;20176;-82
2023/09/06 09:02:30;;;;;;;10.97;3.23;;;21.20;1.00;;;;;;5054618;28;20263;-83
2023/09/06 09:04:56;;;;;;;7.30;3.30;;;21.20;1.00;;;;;;5059400;28;20207;-83
2023/09/06 09:07:21;;;;;;;3.47;2.87;;;21.30;1.00;;;;;;5058842;28;20179;-82
2023/09/06 09:10:01;;;;;;;5.77;3.20;;;21.50;1.00;;;;;;5058257;28;20174;-84
2023/09/06 09:12:28;;;;;;;4.73;2.63;;;21.60;1.00;;;;;;5059459;28;20195;-83
2023/09/06 09:14:54;;;;;;;4.17;2.53;;;21.80;1.00;;;;;;5060608;28;20179;-82
2023/09/06 09:17:24;;;;;;;4.87;3.20;;;21.60;99.90;;;;;;5059031;28;20175;-83
2023/09/06 09:19:51;;;;;;;10.87;2.90;;;21.90;99.90;;;;;;5059486;28;20172;-83
2023/09/06 09:22:40;;;;;;;3.97;2.93;;;21.90;99.90;;;;;;5058358;28;20263;-82
2023/09/06 09:25:15;;;;;;;5.63;2.87;;;22.00;99.90;;;;;;5059314;28;20226;-83
2023/09/06 09:27:45;;;;;;;6.57;2.70;;;22.10;99.90;;;;;;5058438;28;20175;-83
2023/09/06 09:30:12;;;;;;;5.23;2.87;;;22.20;99.90;;;;;;5059773;28;20187;-83
2023/09/06 09:32:42;;;;;;;5.90;2.43;;;22.30;99.90;;;;;;5059419;28;20214;-83
2023/09/06 09:35:12;;;;;;;4.60;2.83;;;22.30;99.90;;;;;;5058423;28;20172;-83
2023/09/06 09:37:49;;;;;;;3.57;2.83;;;22.50;99.90;;;;;;5059209;28;20160;-83
2023/09/06 09:40:20;;;;;;;5.53;2.67;;;22.50;99.90;;;;;;5059975;28;20180;-82
2023/09/06 09:42:56;;;;;;;4.07;2.80;;;22.60;99.90;;;;;;5059558;28;20187;-81
2023/09/06 09:45:24;;;;;;;4.60;3.00;;;22.60;99.90;;;;;;5059211;28;20589;-84
2023/09/06 09:47:51;;;;;;;5.23;3.20;;;22.70;99.90;;;;;;5057898;28;20545;-82
2023/09/06 09:50:18;;;;;;;5.47;2.63;;;22.80;99.90;;;;;;5058663;28;20172;-83
2023/09/06 09:52:44;;;;;;;8.63;3.03;;;22.80;99.90;;;;;;5057240;28;20231;-83
2023/09/06 09:55:16;;;;;;;4.33;2.70;;;22.90;99.90;;;;;;5057730;28;20168;-83
2023/09/06 09:57:46;;;;;;;5.80;2.87;;;22.90;99.90;;;;;;5057868;28;20537;-82
2023/09/06 10:00:13;;;;;;;4.47;2.60;;;23.20;99.90;;;;;;5056961;28;20176;-83
2023/09/06 10:02:43;;;;;;;4.93;2.80;;;23.10;99.90;;;;;;5057251;28;20199;-83
2023/09/06 10:05:16;;;;;;;4.03;2.93;;;23.20;99.90;;;;;;5058278;28;20241;-82
2023/09/06 10:07:42;;;;;;;3.00;2.60;;;23.30;99.90;;;;;;5059326;28;20162;-83
2023/09/06 10:10:11;;;;;;;10.70;2.97;;;23.40;53.90;;;;;;5058724;28;20172;-83
2023/09/06 10:12:49;;;;;;;5.20;3.07;;;23.40;17.30;;;;;;5056696;28;20294;-83
2023/09/06 10:15:14;;;;;;;7.63;2.73;;;23.50;27.60;;;;;;5056274;28;20177;-81
2023/09/06 10:17:44;;;;;;;4.07;3.17;;;23.60;24.60;;;;;;5058826;28;20648;-83
2023/09/06 10:20:12;;;;;;;4.07;2.90;;;23.70;1.00;;;;;;5056868;28;20195;-82
2023/09/06 10:22:42;;;;;;;5.47;2.70;;;23.80;1.00;;;;;;5058374;28;20598;-82
2023/09/06 10:25:10;;;;;;;4.23;2.63;;;23.90;1.00;;;;;;5056980;28;20203;-81
2023/09/06 10:27:49;;;;;;;3.20;2.63;;;24.00;1.00;;;;;;5057412;28;20183;-85
2023/09/06 10:30:17;;;;;;;4.45;2.78;;;24.00;1.00;;;;;;5059865;28;20191;-82
2023/09/06 10:32:44;;;;;;;3.17;2.73;;;24.00;1.00;;;;;;5059737;28;20199;-84
2023/09/06 10:35:30;;;;;;;5.67;3.10;;;24.00;1.00;;;;;;5060331;28;20624;-81
2023/09/06 10:38:15;;;;;;;3.63;2.60;;;24.20;1.00;;;;;;5060097;28;20160;-82
2023/09/06 10:40:49;;;;;;;5.97;2.90;;;24.30;1.00;;;;;;5060744;28;20597;-82
2023/09/06 10:43:20;;;;;;;3.75;2.65;;;24.40;1.00;;;;;;5058659;28;20336;-82
2023/09/06 10:46:24;;;;;;;4.95;2.60;;;24.50;99.90;;;;;;5060762;28;20171;-81
2023/09/06 10:49:12;;;;;;;3.10;2.80;;;24.50;1.00;;;;;;5060284;28;20159;-82
2023/09/06 10:51:59;;;;;;;4.05;2.70;;;24.60;1.00;;;;;;5058451;28;20682;-80
2023/09/06 10:54:38;;;;;;;3.80;2.58;;;24.70;1.00;;;;;;5060005;28;20159;-82
2023/09/06 10:57:09;;;;;;;3.53;2.58;;;24.70;1.00;;;;;;5059867;28;20156;-82
2023/09/06 10:59:58;;;;;;;3.95;2.50;;;24.80;1.00;;;;;;5059488;28;20676;-82
2023/09/06 11:02:26;;;;;;;4.38;2.53;;;24.90;1.00;;;;;;5057951;28;20694;-83
2023/09/06 11:05:30;;;;;;;3.15;2.72;;;25.00;99.90;;;;;;5057919;28;20187;-82
2023/09/06 11:07:56;;;;;;;4.15;2.78;;;25.00;99.90;;;;;;5058338;28;20174;-82
2023/09/06 11:10:25;;;;;;;2.70;2.30;;;25.10;1.00;;;;;;5059528;28;20175;-82
2023/09/06 11:12:53;;;;;;;3.80;2.70;;;25.20;99.90;;;;;;5057792;28;20269;-81
2023/09/06 11:15:19;;;;;;;2.75;2.30;;;25.10;99.90;;;;;;5059077;28;20186;-81
2023/09/06 11:17:44;;;;;;;4.50;3.08;;;25.30;1.00;;;;;;5058832;28;20630;-82
2023/09/06 11:20:12;;;;;;;2.92;2.63;;;25.40;1.00;;;;;;5059594;28;20191;-81
2023/09/06 11:22:47;;;;;;;3.25;2.47;;;25.40;99.90;;;;;;5058822;28;20279;-82
2023/09/06 11:25:21;;;;;;;5.25;2.85;;;25.50;99.90;;;;;;5059986;28;20156;-82
2023/09/06 11:27:49;;;;;;;3.28;2.70;;;25.60;99.90;;;;;;5057756;28;20180;-82
2023/09/06 11:30:18;;;;;;;3.08;2.42;;;25.80;1.00;;;;;;5057858;28;20206;-82
2023/09/06 11:32:47;;;;;;;5.28;2.92;;;25.70;99.90;;;;;;5057676;28;20226;-82
2023/09/06 11:35:14;;;;;;;3.17;2.58;;;25.80;99.90;;;;;;5058994;28;20180;-81
2023/09/06 11:37:46;;;;;;;3.58;2.20;;;25.90;99.90;;;;;;5059076;28;20191;-82
2023/09/06 11:40:15;;;;;;;2.60;2.40;;;26.00;99.90;;;;;;5059558;28;20160;-81
2023/09/06 11:42:47;;;;;;;2.55;2.33;;;25.90;99.90;;;;;;5058878;28;20249;-82
2023/09/06 11:45:16;;;;;;;5.53;2.60;;;26.00;99.90;;;;;;5059636;28;20179;-82
2023/09/06 11:47:44;;;;;;;5.40;2.50;;;26.10;99.90;;;;;;5057815;28;20214;-81
2023/09/06 11:50:12;;;;;;;3.88;2.40;;;26.10;78.30;;;;;;5057068;28;20186;-83
2023/09/06 11:52:40;;;;;;;2.78;2.17;;;26.20;99.90;;;;;;5058460;28;20203;-82
2023/09/06 11:55:09;;;;;;;2.45;2.25;;;26.10;99.90;;;;;;5057890;28;20527;-82
2023/09/06 11:57:39;;;;;;;7.53;2.33;;;26.30;1.00;;;;;;5058820;28;20174;-83
2023/09/06 12:00:19;;;;;;;2.70;2.30;;;26.40;1.00;;;;;;5059205;28;20229;-81
2023/09/06 12:02:48;;;;;;;3.47;2.60;;;26.40;1.00;;;;;;5058694;28;20598;-85
2023/09/06 12:05:23;;;;;;;2.85;2.25;;;26.60;99.90;;;;;;5059101;28;20195;-85
2023/09/06 12:07:49;;;;;;;3.92;2.40;;;26.50;1.00;;;;;;5058595;28;20170;-84
2023/09/06 12:10:20;;;;;;;2.85;1.95;;;26.70;1.00;;;;;;5057413;28;20534;-84
2023/09/06 12:12:49;;;;;;;2.90;2.35;;;26.60;1.00;;;;;;5057732;28;20199;-85
2023/09/06 12:15:19;;;;;;;3.67;2.30;;;26.70;1.00;;;;;;5057339;28;20171;-85
2023/09/06 12:17:56;;;;;;;6.20;2.50;;;26.80;1.00;;;;;;5057607;28;20163;-83
2023/09/06 12:20:23;;;;;;;3.35;2.20;;;26.80;1.00;;;;;;5058105;28;20148;-84
2023/09/06 12:22:51;;;;;;;4.43;2.40;;;26.80;1.00;;;;;;5056514;28;20221;-85
2023/09/06 12:25:18;;;;;;;2.25;2.05;;;26.80;1.00;;;;;;5056397;28;20570;-85
2023/09/06 12:27:44;;;;;;;2.60;1.98;;;26.90;1.00;;;;;;5056204;28;20188;-85
2023/09/06 12:30:11;;;;;;;4.57;2.20;;;26.90;1.00;;;;;;5058250;28;20190;-85
2023/09/06 12:32:42;;;;;;;6.15;1.90;;;27.00;1.00;;;;;;5057010;28;20207;-84
2023/09/06 12:35:09;;;;;;;4.38;2.30;;;27.00;1.00;;;;;;5056001;28;20194;-85
2023/09/06 12:37:39;;;;;;;4.30;2.15;;;27.20;99.90;;;;;;5055588;28;20195;-84
2023/09/06 12:40:10;;;;;;;2.53;2.33;;;27.30;1.00;;;;;;5055445;28;20211;-84
2023/09/06 12:42:46;;;;;;;3.10;2.28;;;27.30;99.90;;;;;;5054908;28;20192;-84
2023/09/06 12:45:26;;;;;;;2.30;2.03;;;27.40;99.90;;;;;;5053631;28;20175;-84
2023/09/06 12:47:53;;;;;;;2.92;2.30;;;27.50;99.90;;;;;;5054221;28;20206;-83
2023/09/06 12:50:19;;;;;;;2.42;2.10;;;27.60;99.90;;;;;;5054671;28;20294;-84
2023/09/06 12:52:46;;;;;;;2.95;2.08;;;27.50;99.90;;;;;;5053742;28;20214;-84
2023/09/06 12:55:12;;;;;;;4.47;2.28;;;27.50;99.90;;;;;;5053452;28;20172;-84